sensor_id;sensor_type;location;lat;lon;timestamp;pressure;altitude;pressure_sealevel;temperature;humidity
49461;BME280;35355;49.198;-0.368;2022-10-16T00:00:52;100466.44;;;14.54;81.11
49461;BME280;35355;49.198;-0.368;2022-10-16T00:03:18;100463.69;;;14.54;81.44
49461;BME280;35355;49.198;-0.368;2022-10-16T00:05:44;100463.97;;;14.53;81.17
49461;BME280;35355;49.198;-0.368;2022-10-16T00:08:12;100464.78;;;14.53;81.24
49461;BME280;35355;49.198;-0.368;2022-10-16T00:10:38;100459.88;;;14.50;81.28
49461;BME280;35355;49.198;-0.368;2022-10-16T00:13:05;100465.38;;;14.50;81.09
49461;BME280;35355;49.198;-0.368;2022-10-16T00:15:33;100465.38;;;14.50;81.45
49461;BME280;35355;49.198;-0.368;2022-10-16T00:18:01;100453.03;;;14.48;81.48
49461;BME280;35355;49.198;-0.368;2022-10-16T00:20:27;100451.69;;;14.45;81.42
49461;BME280;35355;49.198;-0.368;2022-10-16T00:22:52;100448.44;;;14.43;81.56
49461;BME280;35355;49.198;-0.368;2022-10-16T00:25:17;100451.19;;;14.43;81.54
49461;BME280;35355;49.198;-0.368;2022-10-16T00:27:43;100461.66;;;14.41;81.60
49461;BME280;35355;49.198;-0.368;2022-10-16T00:30:08;100463.28;;;14.42;81.57
49461;BME280;35355;49.198;-0.368;2022-10-16T00:32:34;100455.94;;;14.37;81.60
49461;BME280;35355;49.198;-0.368;2022-10-16T00:34:59;100460.63;;;14.37;81.59
49461;BME280;35355;49.198;-0.368;2022-10-16T00:37:24;100464.47;;;14.36;81.76
49461;BME280;35355;49.198;-0.368;2022-10-16T00:39:50;100470.50;;;14.38;81.78
49461;BME280;35355;49.198;-0.368;2022-10-16T00:42:17;100472.69;;;14.36;81.87
49461;BME280;35355;49.198;-0.368;2022-10-16T00:44:54;100468.03;;;14.36;81.66
49461;BME280;35355;49.198;-0.368;2022-10-16T00:52:31;100471.06;;;14.35;81.95
49461;BME280;35355;49.198;-0.368;2022-10-16T00:54:56;100472.69;;;14.36;82.15
49461;BME280;35355;49.198;-0.368;2022-10-16T00:57:23;100479.84;;;14.37;82.12
49461;BME280;35355;49.198;-0.368;2022-10-16T00:59:49;100471.59;;;14.37;82.31
49461;BME280;35355;49.198;-0.368;2022-10-16T01:02:16;100471.59;;;14.37;82.23
49461;BME280;35355;49.198;-0.368;2022-10-16T01:04:51;100469.94;;;14.36;82.21
49461;BME280;35355;49.198;-0.368;2022-10-16T01:07:41;100474.03;;;14.38;82.01
49461;BME280;35355;49.198;-0.368;2022-10-16T01:10:35;100475.44;;;14.36;82.15
49461;BME280;35355;49.198;-0.368;2022-10-16T01:13:07;100473.78;;;14.35;82.13
49461;BME280;35355;49.198;-0.368;2022-10-16T01:21:01;100466.44;;;14.30;82.05
49461;BME280;35355;49.198;-0.368;2022-10-16T01:29:05;100480.47;;;14.29;82.23
49461;BME280;35355;49.198;-0.368;2022-10-16T01:31:35;100494.19;;;14.29;82.22
49461;BME280;35355;49.198;-0.368;2022-10-16T01:34:37;100485.16;;;14.28;82.11
49461;BME280;35355;49.198;-0.368;2022-10-16T01:37:09;100490.94;;;14.27;82.27
49461;BME280;35355;49.198;-0.368;2022-10-16T01:39:38;100484.38;;;14.23;82.45
49461;BME280;35355;49.198;-0.368;2022-10-16T01:42:11;100488.47;;;14.25;82.34
49461;BME280;35355;49.198;-0.368;2022-10-16T01:44:39;100481.66;;;14.23;82.42
49461;BME280;35355;49.198;-0.368;2022-10-16T01:47:07;100481.34;;;14.24;82.42
49461;BME280;35355;49.198;-0.368;2022-10-16T01:49:36;100481.34;;;14.24;82.54
49461;BME280;35355;49.198;-0.368;2022-10-16T01:52:07;100487.13;;;14.23;82.57
49461;BME280;35355;49.198;-0.368;2022-10-16T01:54:35;100493.72;;;14.21;82.67
49461;BME280;35355;49.198;-0.368;2022-10-16T01:57:04;100493.22;;;14.19;82.82
49461;BME280;35355;49.198;-0.368;2022-10-16T01:59:33;100485.28;;;14.18;82.72
49461;BME280;35355;49.198;-0.368;2022-10-16T02:02:06;100489.13;;;14.17;82.85
49461;BME280;35355;49.198;-0.368;2022-10-16T02:04:37;100497.66;;;14.15;82.83
49461;BME280;35355;49.198;-0.368;2022-10-16T02:07:03;100503.72;;;14.12;82.83
49461;BME280;35355;49.198;-0.368;2022-10-16T02:09:30;100502.91;;;14.12;82.85
49461;BME280;35355;49.198;-0.368;2022-10-16T02:11:59;100504.00;;;14.11;82.84
49461;BME280;35355;49.198;-0.368;2022-10-16T02:14:28;100500.47;;;14.10;82.88
49461;BME280;35355;49.198;-0.368;2022-10-16T02:16:54;100510.59;;;14.10;83.06
49461;BME280;35355;49.198;-0.368;2022-10-16T02:19:20;100497.16;;;14.08;83.07
49461;BME280;35355;49.198;-0.368;2022-10-16T02:21:54;100507.06;;;14.09;82.83
49461;BME280;35355;49.198;-0.368;2022-10-16T02:27:15;100513.75;;;13.98;82.38
49461;BME280;35355;49.198;-0.368;2022-10-16T02:29:46;100519.81;;;13.95;82.80
49461;BME280;35355;49.198;-0.368;2022-10-16T02:32:17;100526.94;;;13.96;82.84
49461;BME280;35355;49.198;-0.368;2022-10-16T02:34:45;100529.97;;;13.94;83.18
49461;BME280;35355;49.198;-0.368;2022-10-16T02:37:12;100529.75;;;13.91;83.23
49461;BME280;35355;49.198;-0.368;2022-10-16T02:39:38;100537.41;;;13.94;83.28
49461;BME280;35355;49.198;-0.368;2022-10-16T02:42:11;100530.28;;;13.93;83.13
49461;BME280;35355;49.198;-0.368;2022-10-16T02:44:36;100534.13;;;13.92;83.17
49461;BME280;35355;49.198;-0.368;2022-10-16T02:47:01;100533.59;;;13.90;83.26
49461;BME280;35355;49.198;-0.368;2022-10-16T02:49:27;100530.00;;;13.89;83.11
49461;BME280;35355;49.198;-0.368;2022-10-16T02:51:53;100534.41;;;13.90;83.16
49461;BME280;35355;49.198;-0.368;2022-10-16T02:54:18;100534.41;;;13.90;83.26
49461;BME280;35355;49.198;-0.368;2022-10-16T02:56:43;100535.50;;;13.89;83.02
49461;BME280;35355;49.198;-0.368;2022-10-16T02:59:09;100540.19;;;13.89;83.19
49461;BME280;35355;49.198;-0.368;2022-10-16T03:01:34;100547.59;;;13.88;83.26
49461;BME280;35355;49.198;-0.368;2022-10-16T03:03:59;100546.78;;;13.88;83.41
49461;BME280;35355;49.198;-0.368;2022-10-16T03:06:24;100540.75;;;13.85;83.50
49461;BME280;35355;49.198;-0.368;2022-10-16T03:08:50;100555.28;;;13.86;83.44
49461;BME280;35355;49.198;-0.368;2022-10-16T03:11:15;100551.22;;;13.83;83.45
49461;BME280;35355;49.198;-0.368;2022-10-16T03:13:40;100556.66;;;13.89;83.59
49461;BME280;35355;49.198;-0.368;2022-10-16T03:16:06;100541.84;;;13.90;83.57
49461;BME280;35355;49.198;-0.368;2022-10-16T03:18:31;100536.84;;;13.92;83.71
49461;BME280;35355;49.198;-0.368;2022-10-16T03:20:56;100548.38;;;13.94;83.49
49461;BME280;35355;49.198;-0.368;2022-10-16T03:23:22;100547.81;;;13.97;83.73
49461;BME280;35355;49.198;-0.368;2022-10-16T03:25:47;100549.97;;;14.00;83.77
49461;BME280;35355;49.198;-0.368;2022-10-16T03:28:13;100553.81;;;13.99;83.84
49461;BME280;35355;49.198;-0.368;2022-10-16T03:30:38;100543.63;;;13.99;83.75
49461;BME280;35355;49.198;-0.368;2022-10-16T03:33:05;100551.03;;;14.04;83.91
49461;BME280;35355;49.198;-0.368;2022-10-16T03:35:31;100549.38;;;14.03;83.80
49461;BME280;35355;49.198;-0.368;2022-10-16T03:37:57;100548.28;;;14.04;83.80
49461;BME280;35355;49.198;-0.368;2022-10-16T03:40:23;100552.94;;;14.03;83.76
49461;BME280;35355;49.198;-0.368;2022-10-16T03:42:48;100556.81;;;14.02;83.72
49461;BME280;35355;49.198;-0.368;2022-10-16T03:45:14;100557.31;;;14.04;83.91
49461;BME280;35355;49.198;-0.368;2022-10-16T03:47:39;100561.72;;;14.06;84.07
49461;BME280;35355;49.198;-0.368;2022-10-16T03:50:05;100554.56;;;14.04;83.98
49461;BME280;35355;49.198;-0.368;2022-10-16T03:52:30;100553.47;;;14.06;83.98
49461;BME280;35355;49.198;-0.368;2022-10-16T03:54:57;100560.28;;;14.08;83.80
49461;BME280;35355;49.198;-0.368;2022-10-16T03:57:22;100566.91;;;14.07;83.80
49461;BME280;35355;49.198;-0.368;2022-10-16T03:59:48;100565.25;;;14.06;83.83
49461;BME280;35355;49.198;-0.368;2022-10-16T04:02:13;100565.25;;;14.06;83.77
49461;BME280;35355;49.198;-0.368;2022-10-16T04:04:39;100564.97;;;14.08;83.92
49461;BME280;35355;49.198;-0.368;2022-10-16T04:07:04;100566.06;;;14.07;83.90
49461;BME280;35355;49.198;-0.368;2022-10-16T04:09:30;100568.53;;;14.08;84.01
49461;BME280;35355;49.198;-0.368;2022-10-16T04:11:55;100566.63;;;14.09;83.94
49461;BME280;35355;49.198;-0.368;2022-10-16T04:14:20;100566.91;;;14.07;84.05
49461;BME280;35355;49.198;-0.368;2022-10-16T04:16:46;100577.88;;;14.07;84.11
49461;BME280;35355;49.198;-0.368;2022-10-16T04:19:11;100569.94;;;14.06;84.18
49461;BME280;35355;49.198;-0.368;2022-10-16T04:21:37;100580.09;;;14.05;84.31
49461;BME280;35355;49.198;-0.368;2022-10-16T04:24:02;100571.03;;;14.04;84.35
49461;BME280;35355;49.198;-0.368;2022-10-16T04:26:28;100561.47;;;14.02;84.38
49461;BME280;35355;49.198;-0.368;2022-10-16T04:28:54;100582.03;;;14.04;84.29
49461;BME280;35355;49.198;-0.368;2022-10-16T04:31:19;100573.78;;;14.04;84.39
49461;BME280;35355;49.198;-0.368;2022-10-16T04:33:45;100574.59;;;14.05;84.47
49461;BME280;35355;49.198;-0.368;2022-10-16T04:36:10;100569.94;;;14.06;84.16
49461;BME280;35355;49.198;-0.368;2022-10-16T04:38:36;100577.63;;;14.03;84.25
49461;BME280;35355;49.198;-0.368;2022-10-16T04:41:03;100574.59;;;14.05;84.40
49461;BME280;35355;49.198;-0.368;2022-10-16T04:43:28;100563.91;;;14.03;84.49
49461;BME280;35355;49.198;-0.368;2022-10-16T04:45:53;100571.34;;;14.03;84.32
49461;BME280;35355;49.198;-0.368;2022-10-16T04:48:19;100566.44;;;14.00;84.26
49461;BME280;35355;49.198;-0.368;2022-10-16T04:50:45;100564.78;;;13.99;84.29
49461;BME280;35355;49.198;-0.368;2022-10-16T04:53:11;100577.97;;;13.97;84.37
49461;BME280;35355;49.198;-0.368;2022-10-16T04:55:36;100589.53;;;13.94;84.35
49461;BME280;35355;49.198;-0.368;2022-10-16T04:58:02;100592.56;;;13.92;84.35
49461;BME280;35355;49.198;-0.368;2022-10-16T05:00:28;100597.00;;;13.88;84.34
49461;BME280;35355;49.198;-0.368;2022-10-16T05:02:53;100590.44;;;13.84;84.47
49461;BME280;35355;49.198;-0.368;2022-10-16T05:05:18;100604.16;;;13.84;84.53
49461;BME280;35355;49.198;-0.368;2022-10-16T05:07:47;100622.25;;;13.85;84.55
49461;BME280;35355;49.198;-0.368;2022-10-16T05:10:14;100624.16;;;13.84;84.31
49461;BME280;35355;49.198;-0.368;2022-10-16T05:12:39;100623.13;;;13.80;84.36
49461;BME280;35355;49.198;-0.368;2022-10-16T05:15:05;100628.63;;;13.80;84.13
49461;BME280;35355;49.198;-0.368;2022-10-16T05:17:30;100627.00;;;13.74;84.21
49461;BME280;35355;49.198;-0.368;2022-10-16T05:41:13;100624.75;;;12.81;83.79
49461;BME280;35355;49.198;-0.368;2022-10-16T05:43:38;100615.97;;;12.79;84.16
49461;BME280;35355;49.198;-0.368;2022-10-16T05:46:05;100623.66;;;12.77;84.75
49461;BME280;35355;49.198;-0.368;2022-10-16T05:48:32;100622.28;;;12.80;84.72
49461;BME280;35355;49.198;-0.368;2022-10-16T05:51:10;100617.34;;;12.82;84.62
49461;BME280;35355;49.198;-0.368;2022-10-16T05:53:37;100614.59;;;12.82;84.92
49461;BME280;35355;49.198;-0.368;2022-10-16T05:56:04;100622.25;;;12.85;84.68
49461;BME280;35355;49.198;-0.368;2022-10-16T05:58:32;100626.38;;;12.88;84.58
49461;BME280;35355;49.198;-0.368;2022-10-16T06:01:11;100629.91;;;12.88;84.68
49461;BME280;35355;49.198;-0.368;2022-10-16T06:03:38;100646.34;;;12.88;84.47
49461;BME280;35355;49.198;-0.368;2022-10-16T06:06:14;100645.53;;;12.88;84.60
49461;BME280;35355;49.198;-0.368;2022-10-16T06:08:41;100658.13;;;12.89;84.37
49461;BME280;35355;49.198;-0.368;2022-10-16T06:11:09;100658.13;;;12.89;84.72
49461;BME280;35355;49.198;-0.368;2022-10-16T06:13:35;100656.47;;;12.93;84.81
49461;BME280;35355;49.198;-0.368;2022-10-16T06:16:02;100655.34;;;12.99;85.07
49461;BME280;35355;49.198;-0.368;2022-10-16T06:18:28;100654.78;;;13.07;85.45
49461;BME280;35355;49.198;-0.368;2022-10-16T06:20:55;100662.69;;;13.14;85.01
49461;BME280;35355;49.198;-0.368;2022-10-16T06:23:21;100655.25;;;13.20;84.96
49461;BME280;35355;49.198;-0.368;2022-10-16T06:25:46;100656.91;;;13.26;85.07
49461;BME280;35355;49.198;-0.368;2022-10-16T06:28:13;100656.03;;;13.30;84.95
49461;BME280;35355;49.198;-0.368;2022-10-16T06:30:39;100652.47;;;13.35;85.22
49461;BME280;35355;49.198;-0.368;2022-10-16T06:33:04;100659.03;;;13.39;85.33
49461;BME280;35355;49.198;-0.368;2022-10-16T06:35:30;100653.00;;;13.42;85.30
49461;BME280;35355;49.198;-0.368;2022-10-16T06:37:57;100662.31;;;13.46;85.10
49461;BME280;35355;49.198;-0.368;2022-10-16T06:40:22;100655.41;;;13.49;85.17
49461;BME280;35355;49.198;-0.368;2022-10-16T06:42:47;100668.81;;;13.56;85.19
49461;BME280;35355;49.198;-0.368;2022-10-16T06:45:13;100674.81;;;13.58;85.17
49461;BME280;35355;49.198;-0.368;2022-10-16T06:47:38;100677.28;;;13.59;85.20
49461;BME280;35355;49.198;-0.368;2022-10-16T06:50:04;100672.63;;;13.60;85.45
49461;BME280;35355;49.198;-0.368;2022-10-16T06:52:32;100674.81;;;13.63;85.34
49461;BME280;35355;49.198;-0.368;2022-10-16T06:54:57;100668.19;;;13.64;85.38
49461;BME280;35355;49.198;-0.368;2022-10-16T06:57:23;100673.13;;;13.67;85.51
49461;BME280;35355;49.198;-0.368;2022-10-16T06:59:48;100677.50;;;13.73;85.49
49461;BME280;35355;49.198;-0.368;2022-10-16T07:02:14;100671.44;;;13.76;85.53
49461;BME280;35355;49.198;-0.368;2022-10-16T07:04:39;100674.13;;;13.81;85.39
49461;BME280;35355;49.198;-0.368;2022-10-16T07:07:04;100680.69;;;13.85;85.65
49461;BME280;35355;49.198;-0.368;2022-10-16T07:09:33;100686.69;;;13.93;85.71
49461;BME280;35355;49.198;-0.368;2022-10-16T07:11:58;100691.59;;;13.96;85.65
49461;BME280;35355;49.198;-0.368;2022-10-16T07:14:24;100680.03;;;13.99;85.58
49461;BME280;35355;49.198;-0.368;2022-10-16T07:16:50;100691.00;;;14.04;85.77
49461;BME280;35355;49.198;-0.368;2022-10-16T07:19:15;100686.53;;;14.08;85.64
49461;BME280;35355;49.198;-0.368;2022-10-16T07:21:43;100690.13;;;14.09;85.70
49461;BME280;35355;49.198;-0.368;2022-10-16T07:24:13;100689.56;;;14.12;85.47
49461;BME280;35355;49.198;-0.368;2022-10-16T07:26:40;100685.41;;;14.14;85.59
49461;BME280;35355;49.198;-0.368;2022-10-16T07:29:19;100686.75;;;14.17;85.38
49461;BME280;35355;49.198;-0.368;2022-10-16T07:31:46;100685.88;;;14.21;85.72
49461;BME280;35355;49.198;-0.368;2022-10-16T07:34:12;100686.94;;;14.26;85.66
49461;BME280;35355;49.198;-0.368;2022-10-16T07:36:38;100682.00;;;14.28;85.82
49461;BME280;35355;49.198;-0.368;2022-10-16T07:39:04;100695.38;;;14.34;85.58
49461;BME280;35355;49.198;-0.368;2022-10-16T07:41:30;100708.53;;;14.37;85.64
49461;BME280;35355;49.198;-0.368;2022-10-16T07:43:58;100702.72;;;14.44;85.72
49461;BME280;35355;49.198;-0.368;2022-10-16T07:46:25;100713.66;;;14.49;85.73
49461;BME280;35355;49.198;-0.368;2022-10-16T07:48:51;100701.00;;;14.53;85.48
49461;BME280;35355;49.198;-0.368;2022-10-16T07:51:19;100701.22;;;14.57;85.29
49461;BME280;35355;49.198;-0.368;2022-10-16T07:53:45;100691.88;;;14.58;85.76
49461;BME280;35355;49.198;-0.368;2022-10-16T07:56:11;100697.66;;;14.62;85.50
49461;BME280;35355;49.198;-0.368;2022-10-16T07:58:37;100692.38;;;14.65;85.68
49461;BME280;35355;49.198;-0.368;2022-10-16T08:01:08;100695.91;;;14.71;85.38
49461;BME280;35355;49.198;-0.368;2022-10-16T08:03:34;100697.78;;;14.76;85.64
49461;BME280;35355;49.198;-0.368;2022-10-16T08:06:00;100698.00;;;14.79;85.52
49461;BME280;35355;49.198;-0.368;2022-10-16T08:08:26;100700.72;;;14.84;85.43
49461;BME280;35355;49.198;-0.368;2022-10-16T08:10:51;100697.66;;;14.86;85.36
49461;BME280;35355;49.198;-0.368;2022-10-16T08:13:17;100699.53;;;14.90;85.41
49461;BME280;35355;49.198;-0.368;2022-10-16T08:15:46;100717.09;;;14.95;85.39
49461;BME280;35355;49.198;-0.368;2022-10-16T08:18:13;100713.47;;;14.99;85.39
49461;BME280;35355;49.198;-0.368;2022-10-16T08:20:39;100711.47;;;15.05;84.86
49461;BME280;35355;49.198;-0.368;2022-10-16T08:23:05;100715.00;;;15.11;85.12
49461;BME280;35355;49.198;-0.368;2022-10-16T08:25:34;100718.50;;;15.16;85.08
49461;BME280;35355;49.198;-0.368;2022-10-16T08:28:00;100714.88;;;15.21;84.87
49461;BME280;35355;49.198;-0.368;2022-10-16T08:30:25;100739.25;;;15.27;84.90
49461;BME280;35355;49.198;-0.368;2022-10-16T08:32:50;100752.66;;;15.34;84.66
49461;BME280;35355;49.198;-0.368;2022-10-16T08:35:16;100747.38;;;15.38;84.45
49461;BME280;35355;49.198;-0.368;2022-10-16T08:37:42;100753.41;;;15.40;84.29
49461;BME280;35355;49.198;-0.368;2022-10-16T08:40:17;100767.47;;;15.38;84.18
49461;BME280;35355;49.198;-0.368;2022-10-16T08:51:03;100776.22;;;15.40;83.98
49461;BME280;35355;49.198;-0.368;2022-10-16T08:53:49;100773.41;;;15.46;83.88
49461;BME280;35355;49.198;-0.368;2022-10-16T08:56:15;100774.75;;;15.48;84.10
49461;BME280;35355;49.198;-0.368;2022-10-16T08:58:40;100776.91;;;15.51;83.86
49461;BME280;35355;49.198;-0.368;2022-10-16T09:01:12;100775.81;;;15.52;83.94
49461;BME280;35355;49.198;-0.368;2022-10-16T09:20:34;100765.31;;;15.54;83.46
49461;BME280;35355;49.198;-0.368;2022-10-16T09:25:28;100761.41;;;15.60;83.54
49461;BME280;35355;49.198;-0.368;2022-10-16T09:27:54;100751.44;;;15.65;83.64
49461;BME280;35355;49.198;-0.368;2022-10-16T09:30:21;100751.88;;;15.72;83.56
49461;BME280;35355;49.198;-0.368;2022-10-16T09:32:50;100757.88;;;15.79;83.55
49461;BME280;35355;49.198;-0.368;2022-10-16T09:35:20;100750.97;;;15.82;83.50
49461;BME280;35355;49.198;-0.368;2022-10-16T09:37:48;100749.28;;;15.86;83.13
49461;BME280;35355;49.198;-0.368;2022-10-16T09:40:28;100757.72;;;15.89;82.94
49461;BME280;35355;49.198;-0.368;2022-10-16T09:45:28;100762.66;;;15.92;83.31
49461;BME280;35355;49.198;-0.368;2022-10-16T09:47:54;100776.34;;;15.98;83.29
49461;BME280;35355;49.198;-0.368;2022-10-16T09:50:26;100769.09;;;16.02;82.97
49461;BME280;35355;49.198;-0.368;2022-10-16T09:53:03;100758.34;;;16.05;83.29
49461;BME280;35355;49.198;-0.368;2022-10-16T09:55:29;100743.97;;;16.08;82.88
49461;BME280;35355;49.198;-0.368;2022-10-16T09:57:54;100749.38;;;16.13;83.02
49461;BME280;35355;49.198;-0.368;2022-10-16T10:00:21;100748.50;;;16.18;82.74
49461;BME280;35355;49.198;-0.368;2022-10-16T10:02:48;100756.19;;;16.21;82.64
49461;BME280;35355;49.198;-0.368;2022-10-16T10:07:44;100753.25;;;16.31;82.69
49461;BME280;35355;49.198;-0.368;2022-10-16T10:12:48;100731.66;;;16.39;82.27
49461;BME280;35355;49.198;-0.368;2022-10-16T10:15:15;100728.31;;;16.42;82.00
49461;BME280;35355;49.198;-0.368;2022-10-16T10:22:48;100715.34;;;16.56;81.73
49461;BME280;35355;49.198;-0.368;2022-10-16T10:31:24;100699.97;;;16.69;81.79
49461;BME280;35355;49.198;-0.368;2022-10-16T10:37:18;100721.34;;;16.77;81.47
49461;BME280;35355;49.198;-0.368;2022-10-16T10:43:10;100719.81;;;16.85;81.77
49461;BME280;35355;49.198;-0.368;2022-10-16T10:45:46;100713.97;;;16.87;81.42
49461;BME280;35355;49.198;-0.368;2022-10-16T10:50:48;100709.91;;;16.84;81.18
49461;BME280;35355;49.198;-0.368;2022-10-16T10:53:25;100702.75;;;16.83;81.27
49461;BME280;35355;49.198;-0.368;2022-10-16T11:01:12;100685.63;;;16.86;81.08
49461;BME280;35355;49.198;-0.368;2022-10-16T11:04:04;100676.22;;;16.87;81.22
49461;BME280;35355;49.198;-0.368;2022-10-16T11:06:46;100671.81;;;16.86;81.07
49461;BME280;35355;49.198;-0.368;2022-10-16T11:09:15;100670.41;;;16.89;80.83
49461;BME280;35355;49.198;-0.368;2022-10-16T11:12:34;100680.63;;;16.88;81.02
49461;BME280;35355;49.198;-0.368;2022-10-16T11:14:46;100672.84;;;16.90;81.00
49461;BME280;35355;49.198;-0.368;2022-10-16T11:17:29;100677.25;;;16.91;81.06
49461;BME280;35355;49.198;-0.368;2022-10-16T11:22:35;100669.00;;;16.91;81.02
49461;BME280;35355;49.198;-0.368;2022-10-16T11:25:18;100664.59;;;16.90;81.26
49461;BME280;35355;49.198;-0.368;2022-10-16T11:27:58;100674.50;;;16.91;80.97
49461;BME280;35355;49.198;-0.368;2022-10-16T11:30:29;100669.53;;;16.93;80.88
49461;BME280;35355;49.198;-0.368;2022-10-16T11:35:33;100687.06;;;16.97;80.83
49461;BME280;35355;49.198;-0.368;2022-10-16T11:38:07;100702.00;;;16.96;80.71
49461;BME280;35355;49.198;-0.368;2022-10-16T11:40:38;100704.22;;;16.94;80.80
49461;BME280;35355;49.198;-0.368;2022-10-16T11:43:24;100711.38;;;16.95;80.80
49461;BME280;35355;49.198;-0.368;2022-10-16T11:45:55;100713.63;;;16.93;80.79
49461;BME280;35355;49.198;-0.368;2022-10-16T11:48:33;100702.59;;;16.93;80.59
49461;BME280;35355;49.198;-0.368;2022-10-16T11:51:11;100705.84;;;16.95;80.79
49461;BME280;35355;49.198;-0.368;2022-10-16T11:53:42;100718.53;;;16.96;80.53
49461;BME280;35355;49.198;-0.368;2022-10-16T11:56:18;100717.38;;;16.97;80.61
49461;BME280;35355;49.198;-0.368;2022-10-16T12:01:43;100683.50;;;16.97;80.74
49461;BME280;35355;49.198;-0.368;2022-10-16T12:04:25;100682.06;;;16.99;80.59
49461;BME280;35355;49.198;-0.368;2022-10-16T12:06:59;100691.16;;;17.00;80.55
49461;BME280;35355;49.198;-0.368;2022-10-16T12:09:30;100688.09;;;17.01;80.52
49461;BME280;35355;49.198;-0.368;2022-10-16T12:11:57;100686.97;;;17.03;80.83
49461;BME280;35355;49.198;-0.368;2022-10-16T12:16:59;100687.47;;;17.05;80.76
49461;BME280;35355;49.198;-0.368;2022-10-16T12:19:27;100682.78;;;17.05;80.90
49461;BME280;35355;49.198;-0.368;2022-10-16T12:21:58;100689.72;;;17.03;80.87
49461;BME280;35355;49.198;-0.368;2022-10-16T12:26:56;100675.03;;;16.93;80.95
49461;BME280;35355;49.198;-0.368;2022-10-16T12:29:39;100677.56;;;16.90;81.27
49461;BME280;35355;49.198;-0.368;2022-10-16T12:34:48;100672.72;;;16.81;81.61
49461;BME280;35355;49.198;-0.368;2022-10-16T12:37:31;100670.88;;;16.77;81.58
49461;BME280;35355;49.198;-0.368;2022-10-16T12:39:58;100679.75;;;16.74;81.79
49461;BME280;35355;49.198;-0.368;2022-10-16T12:44:54;100671.06;;;16.66;82.40
49461;BME280;35355;49.198;-0.368;2022-10-16T12:47:35;100665.06;;;16.64;82.30
49461;BME280;35355;49.198;-0.368;2022-10-16T12:50:00;100664.03;;;16.60;82.43
49461;BME280;35355;49.198;-0.368;2022-10-16T12:52:31;100665.97;;;16.60;82.55
49461;BME280;35355;49.198;-0.368;2022-10-16T12:55:00;100660.78;;;16.58;82.67
49461;BME280;35355;49.198;-0.368;2022-10-16T13:00:48;100662.88;;;16.47;82.85
49461;BME280;35355;49.198;-0.368;2022-10-16T13:09:05;100616.78;;;16.39;83.14
49461;BME280;35355;49.198;-0.368;2022-10-16T13:19:54;100627.16;;;16.28;84.01
49461;BME280;35355;49.198;-0.368;2022-10-16T13:22:29;100623.88;;;16.26;84.18
49461;BME280;35355;49.198;-0.368;2022-10-16T13:28:04;100613.97;;;16.25;84.09
49461;BME280;35355;49.198;-0.368;2022-10-16T13:30:43;100604.09;;;16.24;84.37
49461;BME280;35355;49.198;-0.368;2022-10-16T13:35:35;100605.72;;;16.25;84.69
49461;BME280;35355;49.198;-0.368;2022-10-16T13:38:19;100590.84;;;16.26;84.48
49461;BME280;35355;49.198;-0.368;2022-10-16T13:41:15;100583.69;;;16.25;84.28
49461;BME280;35355;49.198;-0.368;2022-10-16T13:43:44;100570.44;;;16.27;84.93
49461;BME280;35355;49.198;-0.368;2022-10-16T13:48:41;100542.09;;;16.27;84.94
49461;BME280;35355;49.198;-0.368;2022-10-16T14:10:28;100595.44;;;15.84;84.44
49461;BME280;35355;49.198;-0.368;2022-10-16T14:13:00;100579.13;;;15.88;85.12
49461;BME280;35355;49.198;-0.368;2022-10-16T14:15:26;100573.75;;;15.96;85.38
49461;BME280;35355;49.198;-0.368;2022-10-16T14:17:52;100556.53;;;16.05;85.56
49461;BME280;35355;49.198;-0.368;2022-10-16T14:20:23;100562.44;;;16.12;85.82
49461;BME280;35355;49.198;-0.368;2022-10-16T14:23:02;100571.66;;;16.21;85.62
49461;BME280;35355;49.198;-0.368;2022-10-16T14:25:30;100563.28;;;16.26;85.77
49461;BME280;35355;49.198;-0.368;2022-10-16T14:30:27;100570.75;;;16.40;85.89
49461;BME280;35355;49.198;-0.368;2022-10-16T14:32:58;100576.97;;;16.45;85.47
49461;BME280;35355;49.198;-0.368;2022-10-16T14:35:30;100598.41;;;16.48;85.36
49461;BME280;35355;49.198;-0.368;2022-10-16T14:37:56;100595.34;;;16.50;85.57
49461;BME280;35355;49.198;-0.368;2022-10-16T14:40:29;100599.44;;;16.53;85.20
49461;BME280;35355;49.198;-0.368;2022-10-16T14:42:56;100599.13;;;16.54;85.41
49461;BME280;35355;49.198;-0.368;2022-10-16T14:45:24;100605.97;;;16.57;85.50
49461;BME280;35355;49.198;-0.368;2022-10-16T14:47:57;100596.25;;;16.59;85.08
49461;BME280;35355;49.198;-0.368;2022-10-16T14:50:23;100598.44;;;16.62;85.21
49461;BME280;35355;49.198;-0.368;2022-10-16T14:52:49;100589.00;;;16.63;85.42
49461;BME280;35355;49.198;-0.368;2022-10-16T14:55:15;100610.75;;;16.65;85.59
49461;BME280;35355;49.198;-0.368;2022-10-16T14:57:42;100607.19;;;16.64;85.47
49461;BME280;35355;49.198;-0.368;2022-10-16T15:00:16;100603.31;;;16.65;85.19
49461;BME280;35355;49.198;-0.368;2022-10-16T15:02:42;100606.69;;;16.62;85.50
49461;BME280;35355;49.198;-0.368;2022-10-16T15:05:13;100598.44;;;16.62;85.32
49461;BME280;35355;49.198;-0.368;2022-10-16T15:07:38;100589.00;;;16.63;85.41
49461;BME280;35355;49.198;-0.368;2022-10-16T15:10:04;100586.25;;;16.63;85.34
49461;BME280;35355;49.198;-0.368;2022-10-16T15:12:30;100589.84;;;16.64;85.60
49461;BME280;35355;49.198;-0.368;2022-10-16T15:14:55;100578.00;;;16.63;85.47
49461;BME280;35355;49.198;-0.368;2022-10-16T15:17:20;100576.88;;;16.64;85.27
49461;BME280;35355;49.198;-0.368;2022-10-16T15:19:46;100573.09;;;16.60;85.30
49461;BME280;35355;49.198;-0.368;2022-10-16T15:22:11;100569.53;;;16.60;85.37
49461;BME280;35355;49.198;-0.368;2022-10-16T15:24:37;100555.84;;;16.55;85.73
49461;BME280;35355;49.198;-0.368;2022-10-16T15:27:03;100568.81;;;16.54;85.30
49461;BME280;35355;49.198;-0.368;2022-10-16T15:29:28;100585.34;;;16.54;85.31
49461;BME280;35355;49.198;-0.368;2022-10-16T15:31:56;100587.59;;;16.52;85.41
49461;BME280;35355;49.198;-0.368;2022-10-16T15:34:23;100590.06;;;16.54;85.32